Hauptseite
METAR-TAF:

METAR-TAF

Flughäfen :

Luxeuil-les-Bains, Frankreich

Militärflugplatz Luxeuil-Saint Sauveur

Breite: 47-47N, Länge: 006-21E, Höhe: 278 m

Beobachtung

Neuester Wetterbericht von vor 34 Minuten, um 03:00 UTC
Wind 3 kt aus Ost/Südost
Temperatur 9°C
Luftfeuchtigkeit 93%
Luftdruck 1020 hPa
Sichtweite: 8000 m

METAR: LFSX 210300Z AUTO 12003KT 8000 NCD 09/08 Q1020

Zeit: 05:34 (03:34 UTC)

Prognose

Neuester Wetterbericht von vor 19 Stunden und 34 Minuten, um 08:00 UTC
Gültige Prognose vom 20 um 09 UTC bis 21 um 09 UTC
Wind 5 kt aus West
Sichtweite 10 km oder mehr
keine Wolken unter 1500 m und keine Kumulonimbus oder Gewitterwolken

TAF: LFSX 200800Z 2009/2109 26005KT CAVOK

Wetterbeobachtungen und Prognosen von mehr als 4000 Flughäfen (METAR und TAF Bericht).

Die verfügbaren Stationen werden durch gelbe und rote Markierungen auf der Karte dargestellt.

Führen Sie die Maus auf sie, um den Namen der Station zu sehen.

Darauf klicken, um die Beobachtung von Wetterbeobachtungen und Prognosen zu sehen.

Um die Karte zu ändern : klicken Sie auf den grünen Tasten mit einem schwarzen Kreuz Zum Vergrößern, auf den grünen Button mit einem Gedankenstrich zu verkleinern, oder auf die grünen Pfeile für benachbarte Karten.


METAR-TAF: